This is the latest recevied weather packets stored in our database for station/object KE8GJZ-1. If no packets are shown the sender has not sent any weather packets the latest 1 day(s).
| Time | Temp. | Humidity | Pressure | Rain* | Wind** | Luminosity | Snow |
|---|---|---|---|---|---|---|---|
| 1778087423 | 11.11° C | 50% | 1011.4 hPa | 0 mm | - | 236 W/m² | - |
| 1778085601 | 11.67° C | 49% | 1011.2 hPa | 0 mm | - | 268 W/m² | - |
| 1778085296 | 11.11° C | 50% | 1011.2 hPa | 0 mm | - | 300 W/m² | - |
| 1778084689 | 11.11° C | 52% | 1011.3 hPa | 0 mm | - | 197 W/m² | - |
| 1778081452 | 12.22° C | 50% | 1010.8 hPa | 0 mm | - | 279 W/m² | - |
| 1778079635 | 11.67° C | 51% | 1010.8 hPa | 0 mm | - | 537 W/m² | - |
| 1778079029 | 11.67° C | 51% | 1010.7 hPa | 0 mm | - | 418 W/m² | - |
| 1778078423 | 11.67° C | 53% | 1010.6 hPa | 0 mm | - | 513 W/m² | - |
| 1778077819 | 11.67° C | 51% | 1010.4 hPa | 0 mm | - | 471 W/m² | - |
| 1778077214 | 12.22° C | 47% | 1010.4 hPa | 0 mm | - | 537 W/m² | - |
| 1778076912 | 12.22° C | 49% | 1009.9 hPa | 0 mm | - | 459 W/m² | - |
| 1778076610 | 11.67° C | 50% | 1010.5 hPa | 0 mm | - | 555 W/m² | - |
| 1778076307 | 11.67° C | 49% | 1010.2 hPa | 0 mm | - | 458 W/m² | - |
| 1778075701 | 12.22° C | 47% | 1009.9 hPa | 0 mm | - | 414 W/m² | - |
| 1778075093 | 10.56° C | 52% | 1009.8 hPa | 0 mm | - | 344 W/m² | - |
| 1778073578 | 9.44° C | 56% | 1009.7 hPa | 0 mm | - | 228 W/m² | - |
| 1778072668 | 8.33° C | 60% | 1009.4 hPa | 0 mm | - | 56 W/m² | - |
| 1778072064 | 7.78° C | 60% | 1009.4 hPa | 0 mm | - | 54 W/m² | - |
| 1778071762 | 7.22° C | 62% | 1009.3 hPa | 0 mm | - | 62 W/m² | - |
| 1778071157 | 7.22° C | 65% | 1009.4 hPa | 0 mm | - | 36 W/m² | - |
| 1778070552 | 6.67° C | 66% | 1009.2 hPa | 0 mm | - | 32 W/m² | - |
| 1778069038 | 5.56° C | 70% | 1008.7 hPa | 0 mm | - | 23 W/m² | - |
| 1778068131 | 5.56° C | 70% | 1008.9 hPa | 0 mm | - | 29 W/m² | - |
| 1778066618 | 5° C | 76% | 1008.6 hPa | 0 mm | - | 32 W/m² | - |
| 1778065711 | 5° C | 75% | 1008.5 hPa | 0 mm | - | 17 W/m² | - |
* Rain latest hour (hover to see other rain measurements)
** Current wind speed in m/s (hover to see current wind gust speed)